Time;durP1;ratioP1;P1;durP2;ratioP2;P2;SDS_P1;SDS_P2;PMS_P1;PMS_P2;Temp;Humidity;BMP_temperature;BMP_pressure;BME280_temperature;BME280_humidity;BME280_pressure;Samples;Min_cycle;Max_cycle;Signal;HPM_P1;HPM_P2
2022/05/28 00:00:35;;;;;;;4.97;2.40;;;;;;;;;;5072836;28;20180;-77
2022/05/28 00:03:01;;;;;;;7.22;2.40;;;;;;;;;;5072571;28;20645;-78
2022/05/28 00:05:27;;;;;;;8.20;2.33;;;;;;;;;;5072825;28;20707;-78
2022/05/28 00:07:53;;;;;;;8.25;2.47;;;;;;;;;;5072804;28;20189;-78
2022/05/28 00:10:19;;;;;;;16.50;2.67;;;;;;;;;;5072657;28;20326;-76
2022/05/28 00:12:46;;;;;;;8.02;2.88;;;;;;;;;;5072793;28;20415;-75
2022/05/28 00:15:13;;;;;;;8.63;2.85;;;;;;;;;;5072359;28;20227;-78
2022/05/28 00:17:39;;;;;;;4.65;2.25;;;;;;;;;;5072851;28;20184;-79
2022/05/28 00:20:06;;;;;;;6.05;2.58;;;;;;;;;;5072739;28;20208;-77
2022/05/28 00:22:36;;;;;;;7.53;2.15;;;;;;;;;;5072598;28;20184;-78
2022/05/28 00:25:02;;;;;;;11.70;2.60;;;;;;;;;;5072237;28;20212;-75
2022/05/28 00:27:28;;;;;;;8.90;2.15;;;;;;;;;;5054753;28;20188;-78
2022/05/28 00:29:54;;;;;;;13.03;5.20;;;;;;;;;;5072651;28;20541;-77
2022/05/28 00:32:20;;;;;;;7.07;2.07;;;;;;;;;;5070996;28;20423;-78
2022/05/28 00:34:46;;;;;;;8.48;3.05;;;;;;;;;;5070709;28;20467;-77
2022/05/28 00:37:12;;;;;;;7.13;1.77;;;;;;;;;;5072406;28;20220;-76
2022/05/28 00:39:38;;;;;;;10.63;2.30;;;;;;;;;;5072493;28;20637;-76
2022/05/28 00:42:04;;;;;;;9.67;2.23;;;;;;;;;;5072509;28;20415;-77
2022/05/28 00:44:30;;;;;;;10.75;3.08;;;;;;;;;;5071864;28;20449;-78
2022/05/28 00:46:57;;;;;;;5.10;2.17;;;;;;;;;;5074637;28;20174;-77
2022/05/28 00:49:26;;;;;;;8.43;2.40;;;;;;;;;;5076052;28;20399;-79
2022/05/28 00:51:53;;;;;;;11.30;2.20;;;;;;;;;;5076122;28;20173;-78
2022/05/28 00:54:19;;;;;;;10.45;2.55;;;;;;;;;;5075463;28;20575;-76
2022/05/28 00:56:45;;;;;;;3.58;1.98;;;;;;;;;;5076040;28;20170;-77
2022/05/28 00:59:11;;;;;;;7.15;2.45;;;;;;;;;;5076228;28;20173;-78
2022/05/28 01:01:39;;;;;;;11.57;3.10;;;;;;;;;;5075959;28;20193;-76
2022/05/28 01:04:11;;;;;;;13.68;2.03;;;;;;;;;;5074181;28;20208;-78
2022/05/28 01:06:40;;;;;;;10.38;2.78;;;;;;;;;;5076073;28;20177;-77
2022/05/28 01:09:09;;;;;;;9.50;2.70;;;;;;;;;;5075920;28;20173;-78
2022/05/28 01:12:01;;;;;;;5.57;2.22;;;;;;;;;;5075773;28;20176;-78
2022/05/28 01:14:31;;;;;;;5.93;2.20;;;;;;;;;;5051204;28;20286;-77
2022/05/28 01:17:23;;;;;;;5.63;2.10;;;;;;;;;;5075552;28;20181;-77
2022/05/28 01:19:52;;;;;;;9.95;2.25;;;;;;;;;;5059772;28;20595;-77
2022/05/28 01:22:18;;;;;;;7.00;2.30;;;;;;;;;;5075572;28;20176;-75
2022/05/28 01:24:44;;;;;;;6.32;2.75;;;;;;;;;;5075150;28;20275;-77
2022/05/28 01:27:12;;;;;;;12.03;2.43;;;;;;;;;;5075340;28;20571;-77
2022/05/28 01:29:41;;;;;;;9.27;2.50;;;;;;;;;;5075439;28;20411;-76
2022/05/28 01:32:08;;;;;;;8.73;2.45;;;;;;;;;;5075269;28;20532;-78
2022/05/28 01:34:34;;;;;;;10.77;2.75;;;;;;;;;;5074930;28;20571;-79
2022/05/28 01:37:01;;;;;;;12.05;3.15;;;;;;;;;;5075147;28;20208;-77
2022/05/28 01:39:28;;;;;;;5.32;2.60;;;;;;;;;;5075165;28;20169;-78
2022/05/28 01:41:55;;;;;;;4.90;2.63;;;;;;;;;;5075315;28;20181;-78
2022/05/28 01:44:21;;;;;;;6.72;2.38;;;;;;;;;;5074735;28;20201;-78
2022/05/28 01:46:47;;;;;;;7.93;2.33;;;;;;;;;;5075147;28;20177;-76
2022/05/28 01:49:15;;;;;;;6.07;2.95;;;;;;;;;;5075114;28;20178;-79
2022/05/28 01:51:44;;;;;;;4.25;1.88;;;;;;;;;;5075017;28;20184;-78
2022/05/28 01:54:11;;;;;;;9.10;2.63;;;;;;;;;;5074640;28;20205;-75
2022/05/28 01:56:44;;;;;;;14.35;3.45;;;;;;;;;;5074949;28;20173;-76
2022/05/28 01:59:12;;;;;;;9.30;2.63;;;;;;;;;;5074024;28;20180;-77
2022/05/28 02:01:38;;;;;;;5.97;2.58;;;;;;;;;;5074874;28;20180;-77
2022/05/28 02:04:04;;;;;;;5.45;2.50;;;;;;;;;;5074499;28;20212;-75
2022/05/28 02:06:30;;;;;;;10.32;2.47;;;;;;;;;;5074746;28;20180;-77
2022/05/28 02:08:56;;;;;;;17.75;2.65;;;;;;;;;;5074728;28;20184;-77
2022/05/28 02:11:25;;;;;;;5.60;2.90;;;;;;;;;;5074555;28;20235;-80
2022/05/28 02:14:00;;;;;;;14.05;3.38;;;;;;;;;;5074378;28;20235;-77
2022/05/28 02:16:31;;;;;;;8.25;2.80;;;;;;;;;;5074565;28;20248;-76
2022/05/28 02:18:59;;;;;;;8.73;2.40;;;;;;;;;;5074616;28;20521;-76
2022/05/28 02:21:28;;;;;;;14.75;3.28;;;;;;;;;;5074414;28;20272;-78
2022/05/28 02:23:54;;;;;;;6.75;2.75;;;;;;;;;;5073945;28;20173;-78
2022/05/28 02:26:23;;;;;;;15.23;4.18;;;;;;;;;;5074445;28;20177;-76
2022/05/28 02:28:49;;;;;;;7.78;3.20;;;;;;;;;;5074419;28;20648;-77
2022/05/28 02:31:41;;;;;;;15.63;3.80;;;;;;;;;;5073913;28;20200;-76
2022/05/28 02:34:07;;;;;;;9.45;2.67;;;;;;;;;;5071768;28;20220;-75
2022/05/28 02:36:33;;;;;;;6.77;3.10;;;;;;;;;;5073085;28;20306;-78
2022/05/28 02:38:59;;;;;;;16.83;3.53;;;;;;;;;;5074060;28;20418;-79
2022/05/28 02:41:25;;;;;;;11.50;3.00;;;;;;;;;;5073714;28;20442;-78
2022/05/28 02:43:52;;;;;;;6.97;2.20;;;;;;;;;;5073925;28;20407;-76
2022/05/28 02:46:19;;;;;;;7.78;2.35;;;;;;;;;;5073883;28;20177;-76
2022/05/28 02:48:45;;;;;;;6.68;2.33;;;;;;;;;;5074034;28;20166;-76
2022/05/28 02:51:16;;;;;;;5.80;2.25;;;;;;;;;;5073693;28;20180;-77
2022/05/28 02:53:42;;;;;;;7.35;2.60;;;;;;;;;;5073387;28;20538;-78
2022/05/28 02:56:09;;;;;;;7.33;2.70;;;;;;;;;;5073703;28;20213;-75
2022/05/28 02:58:35;;;;;;;7.15;3.08;;;;;;;;;;5073654;28;20414;-77
2022/05/28 03:01:01;;;;;;;10.50;3.20;;;;;;;;;;5073680;28;20169;-75
2022/05/28 03:03:27;;;;;;;9.23;2.55;;;;;;;;;;5073251;28;20174;-78
2022/05/28 03:05:55;;;;;;;7.18;2.83;;;;;;;;;;5073597;28;20280;-78
2022/05/28 03:08:21;;;;;;;10.75;3.22;;;;;;;;;;5073433;28;20692;-77
2022/05/28 03:10:47;;;;;;;12.55;3.50;;;;;;;;;;5073570;28;20181;-76
2022/05/28 03:13:13;;;;;;;7.30;2.20;;;;;;;;;;5073143;28;20181;-77
2022/05/28 03:15:39;;;;;;;9.45;3.17;;;;;;;;;;5073118;28;20469;-75
2022/05/28 03:18:05;;;;;;;11.63;3.37;;;;;;;;;;5073369;28;20272;-75
2022/05/28 03:20:31;;;;;;;11.10;3.90;;;;;;;;;;5073318;28;20419;-78
2022/05/28 03:22:58;;;;;;;8.35;3.05;;;;;;;;;;5072955;28;20407;-78
2022/05/28 03:25:24;;;;;;;9.60;2.78;;;;;;;;;;5073071;28;20212;-76
2022/05/28 03:27:50;;;;;;;11.63;2.65;;;;;;;;;;5071722;28;20629;-77
2022/05/28 03:30:16;;;;;;;7.03;2.53;;;;;;;;;;5073121;28;20559;-76
2022/05/28 03:32:42;;;;;;;7.93;2.88;;;;;;;;;;5073056;28;20201;-76
2022/05/28 03:35:08;;;;;;;10.50;2.60;;;;;;;;;;5072586;28;20227;-77
2022/05/28 03:37:34;;;;;;;13.73;3.60;;;;;;;;;;5072987;28;20806;-78
2022/05/28 03:40:00;;;;;;;14.98;3.03;;;;;;;;;;5072829;28;20188;-78
2022/05/28 03:42:26;;;;;;;8.90;3.00;;;;;;;;;;5071738;28;20173;-76
2022/05/28 03:44:52;;;;;;;10.33;3.20;;;;;;;;;;5072686;28;20477;-78
2022/05/28 03:47:18;;;;;;;9.83;3.23;;;;;;;;;;5073082;28;20884;-77
2022/05/28 03:49:45;;;;;;;9.07;2.85;;;;;;;;;;5073044;28;20778;-77
2022/05/28 03:52:14;;;;;;;6.68;2.80;;;;;;;;;;5072767;28;20181;-75
2022/05/28 03:54:43;;;;;;;11.70;3.20;;;;;;;;;;5072459;28;20292;-76
2022/05/28 03:57:12;;;;;;;5.70;2.85;;;;;;;;;;5073000;28;20169;-75
2022/05/28 03:59:38;;;;;;;10.25;3.20;;;;;;;;;;5073160;28;20177;-76
2022/05/28 04:02:04;;;;;;;7.57;2.60;;;;;;;;;;5073016;28;20264;-76
2022/05/28 04:04:31;;;;;;;12.15;2.85;;;;;;;;;;5072344;28;20428;-76
2022/05/28 04:06:58;;;;;;;11.77;2.88;;;;;;;;;;5072904;28;20326;-76
2022/05/28 04:09:24;;;;;;;11.85;3.42;;;;;;;;;;5072842;28;20169;-76
2022/05/28 04:11:50;;;;;;;13.23;2.80;;;;;;;;;;5072705;28;20200;-76
2022/05/28 04:14:16;;;;;;;8.93;2.80;;;;;;;;;;5072201;28;20213;-76
2022/05/28 04:16:42;;;;;;;10.60;2.70;;;;;;;;;;5071608;28;20416;-76
2022/05/28 04:19:09;;;;;;;11.97;3.00;;;;;;;;;;5072689;28;20913;-74
2022/05/28 04:21:36;;;;;;;12.60;3.03;;;;;;;;;;5074425;28;20895;-75
2022/05/28 04:24:02;;;;;;;8.98;3.53;;;;;;;;;;5076421;28;20427;-79
2022/05/28 04:26:28;;;;;;;10.88;3.78;;;;;;;;;;5076631;28;20177;-76
2022/05/28 04:28:54;;;;;;;8.43;2.70;;;;;;;;;;5076863;28;20269;-74
2022/05/28 04:31:20;;;;;;;9.13;2.83;;;;;;;;;;5076499;28;20426;-75
2022/05/28 04:33:46;;;;;;;7.93;2.70;;;;;;;;;;5076062;28;20419;-76
2022/05/28 04:36:12;;;;;;;13.15;3.70;;;;;;;;;;5076228;28;20212;-76
2022/05/28 04:38:38;;;;;;;19.27;4.80;;;;;;;;;;5076301;28;20739;-76
2022/05/28 04:41:04;;;;;;;8.07;3.50;;;;;;;;;;5075263;28;20422;-77
2022/05/28 04:43:30;;;;;;;7.53;3.17;;;;;;;;;;5075908;28;20407;-76
2022/05/28 04:45:56;;;;;;;9.97;3.53;;;;;;;;;;5074971;28;20197;-75
2022/05/28 04:48:22;;;;;;;11.63;3.33;;;;;;;;;;5076288;28;20420;-76
2022/05/28 04:50:48;;;;;;;14.50;3.20;;;;;;;;;;5075090;28;20184;-77
2022/05/28 04:53:14;;;;;;;16.93;3.60;;;;;;;;;;5074398;28;20447;-77
2022/05/28 04:55:40;;;;;;;7.97;3.53;;;;;;;;;;5076062;28;20462;-77
2022/05/28 04:58:06;;;;;;;15.60;3.03;;;;;;;;;;5076080;28;20227;-77
2022/05/28 05:00:33;;;;;;;14.52;3.60;;;;;;;;;;5075681;28;20439;-75
2022/05/28 05:02:59;;;;;;;11.98;3.88;;;;;;;;;;5075541;28;20211;-77
2022/05/28 05:05:26;;;;;;;9.30;3.77;;;;;;;;;;5075584;28;20209;-77
2022/05/28 05:07:52;;;;;;;12.13;4.80;;;;;;;;;;5074603;28;20963;-76
2022/05/28 05:10:18;;;;;;;16.42;3.80;;;;;;;;;;5075770;28;20414;-79
2022/05/28 05:12:44;;;;;;;8.48;2.53;;;;;;;;;;5075566;28;20205;-78
2022/05/28 05:15:11;;;;;;;10.10;3.63;;;;;;;;;;5075215;28;20209;-76
2022/05/28 05:17:37;;;;;;;6.40;2.60;;;;;;;;;;5075883;28;20196;-78
2022/05/28 05:20:03;;;;;;;11.37;3.30;;;;;;;;;;5075643;28;20219;-78
2022/05/28 05:22:29;;;;;;;9.52;2.88;;;;;;;;;;5075701;28;20782;-77
2022/05/28 05:24:55;;;;;;;6.10;3.00;;;;;;;;;;5075027;28;20197;-76
2022/05/28 05:27:21;;;;;;;6.68;2.92;;;;;;;;;;5075526;28;20404;-78
2022/05/28 05:29:47;;;;;;;12.68;3.25;;;;;;;;;;5075540;28;20227;-77
2022/05/28 05:32:13;;;;;;;9.10;3.35;;;;;;;;;;5074442;28;20606;-79
2022/05/28 05:34:39;;;;;;;7.93;3.27;;;;;;;;;;5074345;28;20211;-78
2022/05/28 05:37:06;;;;;;;10.67;3.53;;;;;;;;;;5075178;28;20429;-75
2022/05/28 05:39:32;;;;;;;10.70;3.70;;;;;;;;;;5075310;28;20400;-78
2022/05/28 05:41:58;;;;;;;18.35;4.80;;;;;;;;;;5075113;28;20860;-76
2022/05/28 05:44:24;;;;;;;9.50;3.17;;;;;;;;;;5073546;28;20254;-76
2022/05/28 05:46:50;;;;;;;12.95;3.70;;;;;;;;;;5074890;28;20786;-75
2022/05/28 05:49:16;;;;;;;13.03;3.63;;;;;;;;;;5075035;28;20178;-76
2022/05/28 05:51:43;;;;;;;9.40;3.10;;;;;;;;;;5075039;28;20419;-75
2022/05/28 05:54:09;;;;;;;9.80;3.53;;;;;;;;;;5074547;28;20526;-76
2022/05/28 05:56:35;;;;;;;6.63;3.40;;;;;;;;;;5075004;28;20173;-78
2022/05/28 05:59:01;;;;;;;9.03;3.00;;;;;;;;;;5073851;28;20464;-76
2022/05/28 06:01:27;;;;;;;10.87;3.97;;;;;;;;;;5075082;28;20403;-77
2022/05/28 06:03:53;;;;;;;14.97;3.90;;;;;;;;;;5074742;28;20415;-78
2022/05/28 06:06:20;;;;;;;9.93;4.00;;;;;;;;;;5074931;28;20453;-75
2022/05/28 06:08:46;;;;;;;12.83;3.70;;;;;;;;;;5074855;28;20415;-75
2022/05/28 06:11:13;;;;;;;8.13;3.70;;;;;;;;;;5074433;28;20415;-77
2022/05/28 06:13:39;;;;;;;8.60;3.70;;;;;;;;;;5074409;28;20430;-77
2022/05/28 06:16:05;;;;;;;9.30;4.13;;;;;;;;;;5074509;28;20829;-78
2022/05/28 06:18:31;;;;;;;7.27;2.73;;;;;;;;;;5074459;28;20822;-78
2022/05/28 06:20:58;;;;;;;9.37;2.90;;;;;;;;;;5074447;28;20412;-77
2022/05/28 06:23:24;;;;;;;14.13;2.70;;;;;;;;;;5074299;28;20808;-75
2022/05/28 06:25:50;;;;;;;8.33;2.47;;;;;;;;;;5073064;28;20484;-76
2022/05/28 06:28:16;;;;;;;15.07;3.20;;;;;;;;;;5074586;28;20408;-78
2022/05/28 06:30:44;;;;;;;14.73;3.07;;;;;;;;;;5074289;28;20411;-76
2022/05/28 06:33:11;;;;;;;10.00;2.67;;;;;;;;;;5073902;28;20503;-77
2022/05/28 06:35:37;;;;;;;11.20;3.33;;;;;;;;;;5074232;28;20467;-76
2022/05/28 06:38:03;;;;;;;9.60;2.50;;;;;;;;;;5074195;28;20422;-76
2022/05/28 06:40:29;;;;;;;12.10;2.93;;;;;;;;;;5074006;28;20415;-77
2022/05/28 06:42:56;;;;;;;4.80;2.17;;;;;;;;;;5073695;28;20412;-76
2022/05/28 06:45:22;;;;;;;11.07;2.87;;;;;;;;;;5071877;28;20435;-75
2022/05/28 06:47:48;;;;;;;9.40;2.13;;;;;;;;;;5073871;28;20411;-77
2022/05/28 06:53:00;;;;;;;5.03;2.07;;;;;;;;;;5073554;28;20407;-78
2022/05/28 06:55:27;;;;;;;7.60;2.47;;;;;;;;;;5073387;28;20463;-78
2022/05/28 06:57:53;;;;;;;7.53;2.93;;;;;;;;;;5073898;28;20414;-77
2022/05/28 07:00:19;;;;;;;12.67;2.80;;;;;;;;;;5073586;28;20884;-78
2022/05/28 07:02:45;;;;;;;7.47;2.50;;;;;;;;;;5073557;28;20490;-78
2022/05/28 07:05:12;;;;;;;6.23;2.73;;;;;;;;;;5073252;28;20436;-78
2022/05/28 07:07:38;;;;;;;11.93;3.20;;;;;;;;;;5073443;28;20785;-76
2022/05/28 07:10:05;;;;;;;9.17;2.50;;;;;;;;;;5073531;28;20445;-77
2022/05/28 07:12:31;;;;;;;6.10;2.67;;;;;;;;;;5073485;28;20418;-76
2022/05/28 07:14:57;;;;;;;6.10;2.50;;;;;;;;;;5071924;28;20512;-76
2022/05/28 07:17:23;;;;;;;6.00;2.20;;;;;;;;;;5073488;28;20403;-76
2022/05/28 07:19:49;;;;;;;11.03;2.27;;;;;;;;;;5073430;28;20411;-76
2022/05/28 07:22:15;;;;;;;5.93;2.33;;;;;;;;;;5073373;28;20508;-76
2022/05/28 07:24:41;;;;;;;6.73;2.60;;;;;;;;;;5071615;28;20534;-78
2022/05/28 07:27:07;;;;;;;6.30;2.13;;;;;;;;;;5073289;28;20454;-77
2022/05/28 07:29:33;;;;;;;11.70;1.97;;;;;;;;;;5073153;28;20393;-76
2022/05/28 07:31:59;;;;;;;6.13;2.40;;;;;;;;;;5073033;28;20414;-75
2022/05/28 07:34:25;;;;;;;5.20;2.03;;;;;;;;;;5072576;28;20474;-77
2022/05/28 07:36:51;;;;;;;5.30;2.00;;;;;;;;;;5073055;28;20408;-79
2022/05/28 07:39:17;;;;;;;9.67;2.20;;;;;;;;;;5072954;28;20411;-76
2022/05/28 07:41:43;;;;;;;14.60;3.03;;;;;;;;;;5072821;28;20407;-77
2022/05/28 07:44:10;;;;;;;5.60;2.00;;;;;;;;;;5072333;28;20427;-77
2022/05/28 07:46:36;;;;;;;7.40;2.10;;;;;;;;;;5072944;28;20411;-78
2022/05/28 07:49:02;;;;;;;7.93;1.73;;;;;;;;;;5073004;28;20888;-78
2022/05/28 07:51:29;;;;;;;6.53;1.17;;;;;;;;;;5072936;28;20777;-77
2022/05/28 07:53:55;;;;;;;13.33;1.77;;;;;;;;;;5072283;28;20408;-77
2022/05/28 07:56:22;;;;;;;4.90;1.23;;;;;;;;;;5072034;28;20423;-77
2022/05/28 07:58:50;;;;;;;7.73;1.73;;;;;;;;;;5071420;28;20913;-78
2022/05/28 08:01:21;;;;;;;6.63;2.00;;;;;;;;;;5072719;28;20926;-77
2022/05/28 08:03:47;;;;;;;3.40;1.53;;;;;;;;;;5072348;28;20433;-77
2022/05/28 08:06:13;;;;;;;4.30;1.50;;;;;;;;;;5071740;28;20511;-78
2022/05/28 08:08:39;;;;;;;5.67;1.77;;;;;;;;;;5072931;28;20437;-78
2022/05/28 08:11:05;;;;;;;4.03;1.10;;;;;;;;;;5072668;28;20495;-78
2022/05/28 08:13:31;;;;;;;9.17;1.70;;;;;;;;;;5072343;28;20382;-78
2022/05/28 08:15:57;;;;;;;6.90;1.13;;;;;;;;;;5072402;28;20528;-76
2022/05/28 08:18:24;;;;;;;3.70;1.80;;;;;;;;;;5072637;28;20415;-78
2022/05/28 08:23:38;;;;;;;5.27;1.27;;;;;;;;;;5072699;28;20407;-79
2022/05/28 08:26:04;;;;;;;8.00;1.73;;;;;;;;;;5072514;28;20469;-75
2022/05/28 08:28:30;;;;;;;11.20;1.80;;;;;;;;;;5071297;28;20905;-76
2022/05/28 08:30:56;;;;;;;6.40;1.60;;;;;;;;;;5071447;28;20416;-78
2022/05/28 08:33:22;;;;;;;10.30;1.80;;;;;;;;;;5072461;28;20420;-77
2022/05/28 08:35:50;;;;;;;6.50;1.43;;;;;;;;;;5072383;28;20458;-77
2022/05/28 08:38:17;;;;;;;8.07;1.30;;;;;;;;;;5072588;28;20750;-77
2022/05/28 08:40:56;;;;;;;4.00;1.13;;;;;;;;;;5072522;28;20407;-76
2022/05/28 08:43:24;;;;;;;3.63;1.17;;;;;;;;;;5072194;28;20959;-76
2022/05/28 08:45:51;;;;;;;3.23;1.03;;;;;;;;;;5072372;28;20431;-77
2022/05/28 08:48:26;;;;;;;5.27;1.43;;;;;;;;;;5072243;28;20727;-74
2022/05/28 08:50:54;;;;;;;3.70;1.20;;;;;;;;;;5072581;28;20439;-77
2022/05/28 08:53:26;;;;;;;5.10;1.27;;;;;;;;;;5071992;28;20433;-76
2022/05/28 08:55:53;;;;;;;3.43;1.33;;;;;;;;;;5072274;28;20525;-75
2022/05/28 08:58:21;;;;;;;5.40;0.93;;;;;;;;;;5072128;28;20412;-76
2022/05/28 09:00:47;;;;;;;4.90;1.23;;;;;;;;;;5072410;28;20728;-77
2022/05/28 09:03:13;;;;;;;4.00;1.60;;;;;;;;;;5072027;28;20381;-77
2022/05/28 09:05:48;;;;;;;4.17;1.30;;;;;;;;;;5072199;28;20755;-77
2022/05/28 09:08:15;;;;;;;6.37;1.40;;;;;;;;;;5074825;28;20445;-77
2022/05/28 09:10:44;;;;;;;3.30;1.30;;;;;;;;;;5075720;28;20866;-77
2022/05/28 09:13:36;;;;;;;3.07;1.07;;;;;;;;;;5075548;28;20388;-76
2022/05/28 09:16:04;;;;;;;2.33;0.93;;;;;;;;;;5073725;28;20467;-75
2022/05/28 09:18:37;;;;;;;3.50;1.30;;;;;;;;;;5075577;28;20837;-76
2022/05/28 09:21:04;;;;;;;4.60;1.47;;;;;;;;;;5075976;28;20472;-75
2022/05/28 09:23:36;;;;;;;4.47;1.30;;;;;;;;;;5075432;28;20841;-76
2022/05/28 09:26:04;;;;;;;3.50;1.10;;;;;;;;;;5075577;28;20930;-76
2022/05/28 09:28:29;;;;;;;3.50;1.30;;;;;;;;;;5075465;28;20511;-77
2022/05/28 09:31:14;;;;;;;6.23;1.30;;;;;;;;;;5075343;28;20462;-77
2022/05/28 09:33:58;;;;;;;5.33;1.20;;;;;;;;;;5074934;28;20411;-76
2022/05/28 09:36:34;;;;;;;7.63;1.27;;;;;;;;;;5073893;28;20557;-75
2022/05/28 09:39:04;;;;;;;1.43;1.20;;;;;;;;;;5074993;28;20495;-76
2022/05/28 09:41:36;;;;;;;3.57;0.83;;;;;;;;;;5075141;28;20759;-77
2022/05/28 09:44:02;;;;;;;2.47;1.20;;;;;;;;;;5074812;28;20978;-77
2022/05/28 09:46:32;;;;;;;3.23;0.87;;;;;;;;;;5075025;28;20451;-76
2022/05/28 09:48:59;;;;;;;6.97;1.30;;;;;;;;;;5074968;28;20396;-77
2022/05/28 09:51:26;;;;;;;3.47;1.10;;;;;;;;;;5073637;28;20576;-77
2022/05/28 09:54:19;;;;;;;5.97;1.20;;;;;;;;;;5074572;28;20469;-77
2022/05/28 09:56:49;;;;;;;9.87;1.43;;;;;;;;;;5073391;28;20398;-76
2022/05/28 09:59:32;;;;;;;4.77;1.40;;;;;;;;;;5074729;28;20399;-76
2022/05/28 10:02:04;;;;;;;2.90;1.57;;;;;;;;;;5074873;28;20396;-78
2022/05/28 10:04:31;;;;;;;3.20;1.00;;;;;;;;;;5074435;28;20429;-74
2022/05/28 10:07:06;;;;;;;4.60;1.20;;;;;;;;;;5073399;28;20447;-79
2022/05/28 10:09:33;;;;;;;5.03;1.37;;;;;;;;;;5074935;28;20427;-76
2022/05/28 10:11:59;;;;;;;3.73;1.17;;;;;;;;;;5074686;28;20406;-78
2022/05/28 10:14:28;;;;;;;2.23;1.00;;;;;;;;;;5074540;28;20585;-78
2022/05/28 10:16:55;;;;;;;6.80;1.37;;;;;;;;;;5074587;28;20403;-77
2022/05/28 10:19:30;;;;;;;6.20;1.20;;;;;;;;;;5073860;28;20411;-77
2022/05/28 10:21:58;;;;;;;5.43;1.23;;;;;;;;;;5074509;28;20412;-77
2022/05/28 10:24:25;;;;;;;5.03;1.10;;;;;;;;;;5073967;28;20488;-75
2022/05/28 10:26:58;;;;;;;3.57;1.30;;;;;;;;;;5074278;28;20443;-77
2022/05/28 10:29:27;;;;;;;1.47;1.00;;;;;;;;;;5074253;28;20434;-78
2022/05/28 10:31:54;;;;;;;3.90;0.90;;;;;;;;;;5074162;28;20722;-77
2022/05/28 10:34:34;;;;;;;2.03;0.70;;;;;;;;;;5072459;28;20538;-77
2022/05/28 10:37:10;;;;;;;4.13;0.90;;;;;;;;;;5074184;28;20442;-76
2022/05/28 10:39:37;;;;;;;2.53;1.07;;;;;;;;;;5074076;28;20411;-78
2022/05/28 10:42:04;;;;;;;2.47;0.80;;;;;;;;;;5074095;28;20410;-76
2022/05/28 10:44:30;;;;;;;7.70;1.27;;;;;;;;;;5073585;28;20428;-76
2022/05/28 10:47:31;;;;;;;1.73;1.03;;;;;;;;;;5073889;28;20470;-77
2022/05/28 10:50:16;;;;;;;4.10;1.13;;;;;;;;;;5031827;28;20417;-76
2022/05/28 10:52:49;;;;;;;3.53;0.90;;;;;;;;;;5070611;28;20415;-75
2022/05/28 10:55:30;;;;;;;4.87;1.30;;;;;;;;;;5072084;28;20475;-77
2022/05/28 10:57:56;;;;;;;4.67;1.00;;;;;;;;;;5073823;28;20400;-75
2022/05/28 11:00:27;;;;;;;2.07;0.90;;;;;;;;;;5073734;28;20480;-76
2022/05/28 11:03:05;;;;;;;2.40;0.80;;;;;;;;;;5073654;28;20415;-75
2022/05/28 11:05:44;;;;;;;3.73;1.13;;;;;;;;;;5073380;28;20433;-77
2022/05/28 11:08:10;;;;;;;6.43;1.00;;;;;;;;;;5073701;28;20403;-76
2022/05/28 11:10:50;;;;;;;2.93;1.10;;;;;;;;;;5073643;28;20420;-77
2022/05/28 11:13:27;;;;;;;3.17;0.90;;;;;;;;;;5073276;28;20503;-76
2022/05/28 11:15:58;;;;;;;1.90;0.70;;;;;;;;;;5073225;28;20467;-77
2022/05/28 11:18:32;;;;;;;5.90;1.17;;;;;;;;;;5073331;28;20400;-77
2022/05/28 11:21:16;;;;;;;1.90;0.97;;;;;;;;;;5073558;28;20474;-78
2022/05/28 11:24:01;;;;;;;3.27;1.20;;;;;;;;;;5072930;28;20400;-76
2022/05/28 11:26:36;;;;;;;3.57;1.10;;;;;;;;;;5073455;28;20408;-78
2022/05/28 11:29:19;;;;;;;2.43;0.90;;;;;;;;;;5073475;28;20761;-77
2022/05/28 11:31:51;;;;;;;3.37;0.90;;;;;;;;;;5070719;28;20465;-77
2022/05/28 11:34:19;;;;;;;2.47;0.77;;;;;;;;;;5072748;28;20431;-75
2022/05/28 11:36:48;;;;;;;2.03;0.90;;;;;;;;;;5073203;28;20766;-74
2022/05/28 11:39:23;;;;;;;4.47;1.00;;;;;;;;;;5073239;28;20435;-74
2022/05/28 11:41:53;;;;;;;3.47;0.87;;;;;;;;;;5073300;28;20407;-76
2022/05/28 11:44:28;;;;;;;2.23;1.00;;;;;;;;;;5072774;28;20394;-75
2022/05/28 11:46:59;;;;;;;3.43;1.20;;;;;;;;;;5073134;28;20409;-76
2022/05/28 11:52:21;;;;;;;4.03;1.03;;;;;;;;;;5073203;28;20411;-76
2022/05/28 11:54:49;;;;;;;3.70;1.37;;;;;;;;;;5072617;28;20935;-76
2022/05/28 11:57:32;;;;;;;4.83;1.27;;;;;;;;;;5072822;28;20774;-74
2022/05/28 12:00:00;;;;;;;5.90;1.27;;;;;;;;;;5072685;28;20411;-75
2022/05/28 12:02:30;;;;;;;6.03;1.10;;;;;;;;;;5072725;28;20404;-76
2022/05/28 12:04:56;;;;;;;4.93;1.00;;;;;;;;;;5072343;28;20421;-76
2022/05/28 12:07:37;;;;;;;4.00;1.50;;;;;;;;;;5072668;28;20422;-75
2022/05/28 12:10:04;;;;;;;4.73;0.93;;;;;;;;;;5072553;28;20401;-76
2022/05/28 12:12:34;;;;;;;5.40;1.40;;;;;;;;;;5072571;28;20416;-77
2022/05/28 12:15:03;;;;;;;5.77;1.40;;;;;;;;;;5072351;28;20764;-76
2022/05/28 12:17:29;;;;;;;3.20;1.23;;;;;;;;;;5072659;28;20911;-75
2022/05/28 12:19:58;;;;;;;4.40;1.00;;;;;;;;;;5072389;28;20412;-76
2022/05/28 12:22:39;;;;;;;4.57;1.20;;;;;;;;;;5072735;28;20833;-76
2022/05/28 12:25:15;;;;;;;6.47;1.17;;;;;;;;;;5072214;28;20438;-78
2022/05/28 12:27:45;;;;;;;5.23;1.27;;;;;;;;;;5072529;28;20460;-77
2022/05/28 12:30:30;;;;;;;3.10;1.17;;;;;;;;;;5072486;28;20472;-75
2022/05/28 12:32:57;;;;;;;5.10;1.03;;;;;;;;;;5072215;28;20518;-75
2022/05/28 12:35:25;;;;;;;4.07;1.30;;;;;;;;;;5072322;28;20514;-76
2022/05/28 12:37:55;;;;;;;5.03;1.40;;;;;;;;;;5072697;28;20871;-74
2022/05/28 12:40:29;;;;;;;3.53;0.97;;;;;;;;;;5072603;28;20487;-75
2022/05/28 12:42:59;;;;;;;7.53;1.10;;;;;;;;;;5073136;28;20760;-75
2022/05/28 12:45:25;;;;;;;2.03;1.00;;;;;;;;;;5076314;28;20424;-75
2022/05/28 12:47:51;;;;;;;2.40;1.00;;;;;;;;;;5075920;28;20607;-78
2022/05/28 12:50:36;;;;;;;2.43;1.13;;;;;;;;;;5074775;28;20382;-76
2022/05/28 12:53:09;;;;;;;7.63;1.17;;;;;;;;;;5075737;28;20524;-75
2022/05/28 12:55:36;;;;;;;2.73;1.23;;;;;;;;;;5076008;28;20487;-75
2022/05/28 12:58:08;;;;;;;2.87;1.00;;;;;;;;;;5075931;28;20813;-75
2022/05/28 13:01:04;;;;;;;3.07;1.10;;;;;;;;;;5075851;28;20484;-78
2022/05/28 13:03:37;;;;;;;1.80;1.13;;;;;;;;;;5066887;28;20409;-75
2022/05/28 13:06:32;;;;;;;3.80;1.10;;;;;;;;;;5074848;28;20398;-76
2022/05/28 13:09:08;;;;;;;2.43;1.20;;;;;;;;;;5066844;28;20498;-76
2022/05/28 13:11:37;;;;;;;7.50;1.30;;;;;;;;;;5076043;28;20414;-76
2022/05/28 13:14:14;;;;;;;5.57;1.27;;;;;;;;;;5075382;28;20414;-76
2022/05/28 13:16:58;;;;;;;4.90;1.47;;;;;;;;;;5075871;28;20779;-77
2022/05/28 13:19:43;;;;;;;3.23;1.40;;;;;;;;;;5075443;28;20396;-75
2022/05/28 13:22:24;;;;;;;2.63;0.83;;;;;;;;;;5075534;28;20386;-77
2022/05/28 13:25:05;;;;;;;2.40;1.27;;;;;;;;;;5074112;28;20792;-76
2022/05/28 13:27:50;;;;;;;2.20;1.07;;;;;;;;;;5075678;28;20439;-74
2022/05/28 13:30:18;;;;;;;3.03;1.00;;;;;;;;;;5075691;28;20374;-76
2022/05/28 13:32:54;;;;;;;5.77;1.33;;;;;;;;;;5075523;28;20523;-76
2022/05/28 13:35:21;;;;;;;4.37;1.30;;;;;;;;;;5075229;28;20493;-76
2022/05/28 13:37:58;;;;;;;3.63;1.00;;;;;;;;;;5075468;28;20403;-75
2022/05/28 13:40:25;;;;;;;2.70;1.10;;;;;;;;;;5075273;28;20362;-75
2022/05/28 13:42:52;;;;;;;1.40;0.83;;;;;;;;;;5075225;28;20408;-76
2022/05/28 13:45:21;;;;;;;5.07;1.23;;;;;;;;;;5075098;28;20432;-75
2022/05/28 13:47:48;;;;;;;5.63;1.10;;;;;;;;;;5075191;28;20418;-76
2022/05/28 13:50:14;;;;;;;6.87;1.30;;;;;;;;;;5075047;28;20411;-77
2022/05/28 13:52:43;;;;;;;4.83;1.23;;;;;;;;;;5074963;28;20890;-77
2022/05/28 13:55:10;;;;;;;4.10;1.17;;;;;;;;;;5073602;28;20483;-76
2022/05/28 13:57:40;;;;;;;5.63;1.63;;;;;;;;;;5075205;28;20841;-75
2022/05/28 14:00:09;;;;;;;5.03;1.27;;;;;;;;;;5074995;28;20407;-78
2022/05/28 14:02:37;;;;;;;3.77;0.93;;;;;;;;;;5074851;28;20390;-76
2022/05/28 14:05:03;;;;;;;5.63;1.50;;;;;;;;;;5074210;28;20435;-77
2022/05/28 14:07:30;;;;;;;5.80;1.30;;;;;;;;;;5074744;28;20418;-76
2022/05/28 14:09:57;;;;;;;3.97;1.30;;;;;;;;;;5074676;28;20488;-77
2022/05/28 14:12:31;;;;;;;4.50;1.77;;;;;;;;;;5074683;28;20413;-76
2022/05/28 14:14:58;;;;;;;6.83;1.03;;;;;;;;;;5074128;28;20463;-75
2022/05/28 14:17:24;;;;;;;2.33;0.83;;;;;;;;;;5074553;28;20408;-76
2022/05/28 14:19:56;;;;;;;3.60;0.90;;;;;;;;;;5074434;28;20973;-77
2022/05/28 14:22:42;;;;;;;3.00;0.93;;;;;;;;;;5074714;28;20483;-75
2022/05/28 14:25:10;;;;;;;2.70;1.00;;;;;;;;;;5066607;28;20522;-76
2022/05/28 14:27:36;;;;;;;2.97;1.10;;;;;;;;;;5074235;28;20527;-76
2022/05/28 14:30:05;;;;;;;6.13;1.23;;;;;;;;;;5074345;28;20401;-75
2022/05/28 14:32:41;;;;;;;2.97;0.90;;;;;;;;;;5074014;28;20409;-76
2022/05/28 14:35:09;;;;;;;2.70;1.10;;;;;;;;;;5073724;28;20758;-77
2022/05/28 14:37:36;;;;;;;3.93;1.00;;;;;;;;;;5074024;28;20473;-76
2022/05/28 14:40:03;;;;;;;3.33;1.10;;;;;;;;;;5074105;28;20927;-76
2022/05/28 14:42:33;;;;;;;5.63;1.23;;;;;;;;;;5073815;28;20399;-76
2022/05/28 14:45:07;;;;;;;3.13;0.80;;;;;;;;;;5073280;28;20419;-75
2022/05/28 14:47:35;;;;;;;4.23;1.63;;;;;;;;;;5073851;28;20450;-76
2022/05/28 14:50:03;;;;;;;4.10;1.60;;;;;;;;;;5073804;28;20411;-75
2022/05/28 14:52:33;;;;;;;2.47;1.20;;;;;;;;;;5073716;28;20404;-76
2022/05/28 14:55:04;;;;;;;3.57;1.67;;;;;;;;;;5073330;28;20462;-77
2022/05/28 14:57:30;;;;;;;4.73;1.43;;;;;;;;;;5073641;28;20429;-77
2022/05/28 14:59:57;;;;;;;4.20;1.50;;;;;;;;;;5073671;28;20447;-76